sensor_id;sensor_type;location;lat;lon;timestamp;P1;durP1;ratioP1;P2;durP2;ratioP2
14526;SDS011;7350;51.208;4.238;2022-10-26T00:01:35;10.77;;;5.18;;
14526;SDS011;7350;51.208;4.238;2022-10-26T00:04:02;9.30;;;4.70;;
14526;SDS011;7350;51.208;4.238;2022-10-26T00:06:29;9.50;;;4.45;;
14526;SDS011;7350;51.208;4.238;2022-10-26T00:08:56;10.38;;;4.38;;
14526;SDS011;7350;51.208;4.238;2022-10-26T00:11:23;7.38;;;3.70;;
14526;SDS011;7350;51.208;4.238;2022-10-26T00:13:51;6.22;;;3.70;;
14526;SDS011;7350;51.208;4.238;2022-10-26T00:16:19;7.93;;;3.90;;
14526;SDS011;7350;51.208;4.238;2022-10-26T00:18:48;11.60;;;4.03;;
14526;SDS011;7350;51.208;4.238;2022-10-26T00:21:15;7.32;;;3.95;;
14526;SDS011;7350;51.208;4.238;2022-10-26T00:23:42;8.63;;;3.85;;
14526;SDS011;7350;51.208;4.238;2022-10-26T00:26:09;8.20;;;3.70;;
14526;SDS011;7350;51.208;4.238;2022-10-26T00:28:36;6.80;;;3.42;;
14526;SDS011;7350;51.208;4.238;2022-10-26T00:31:06;7.97;;;3.70;;
14526;SDS011;7350;51.208;4.238;2022-10-26T00:33:35;8.13;;;3.53;;
14526;SDS011;7350;51.208;4.238;2022-10-26T00:36:02;10.88;;;3.83;;
14526;SDS011;7350;51.208;4.238;2022-10-26T00:38:29;8.38;;;3.30;;
14526;SDS011;7350;51.208;4.238;2022-10-26T00:40:56;6.30;;;2.88;;
14526;SDS011;7350;51.208;4.238;2022-10-26T00:43:38;8.00;;;3.60;;
14526;SDS011;7350;51.208;4.238;2022-10-26T00:46:08;7.82;;;3.33;;
14526;SDS011;7350;51.208;4.238;2022-10-26T00:48:39;7.38;;;3.70;;
14526;SDS011;7350;51.208;4.238;2022-10-26T00:51:11;6.40;;;3.45;;
14526;SDS011;7350;51.208;4.238;2022-10-26T00:53:43;8.25;;;3.72;;
14526;SDS011;7350;51.208;4.238;2022-10-26T00:56:10;8.40;;;3.58;;
14526;SDS011;7350;51.208;4.238;2022-10-26T00:58:38;6.20;;;3.22;;
14526;SDS011;7350;51.208;4.238;2022-10-26T01:01:06;4.57;;;3.35;;
14526;SDS011;7350;51.208;4.238;2022-10-26T01:03:34;8.13;;;3.00;;
14526;SDS011;7350;51.208;4.238;2022-10-26T01:06:02;8.02;;;3.08;;
14526;SDS011;7350;51.208;4.238;2022-10-26T01:08:30;6.07;;;3.03;;
14526;SDS011;7350;51.208;4.238;2022-10-26T01:10:57;8.98;;;3.28;;
14526;SDS011;7350;51.208;4.238;2022-10-26T01:13:25;5.32;;;3.30;;
14526;SDS011;7350;51.208;4.238;2022-10-26T01:15:56;5.82;;;2.90;;
14526;SDS011;7350;51.208;4.238;2022-10-26T01:18:33;6.70;;;3.00;;
14526;SDS011;7350;51.208;4.238;2022-10-26T01:21:08;9.35;;;3.20;;
14526;SDS011;7350;51.208;4.238;2022-10-26T01:26:57;5.55;;;2.75;;
14526;SDS011;7350;51.208;4.238;2022-10-26T01:29:40;6.60;;;2.55;;
14526;SDS011;7350;51.208;4.238;2022-10-26T01:32:27;6.35;;;2.80;;
14526;SDS011;7350;51.208;4.238;2022-10-26T01:34:59;4.65;;;2.50;;
14526;SDS011;7350;51.208;4.238;2022-10-26T01:37:34;5.88;;;3.00;;
14526;SDS011;7350;51.208;4.238;2022-10-26T01:40:05;5.82;;;3.38;;
14526;SDS011;7350;51.208;4.238;2022-10-26T01:42:37;4.97;;;2.90;;
14526;SDS011;7350;51.208;4.238;2022-10-26T01:45:09;8.30;;;2.83;;
14526;SDS011;7350;51.208;4.238;2022-10-26T01:47:40;5.22;;;2.60;;
14526;SDS011;7350;51.208;4.238;2022-10-26T01:50:09;7.75;;;2.60;;
14526;SDS011;7350;51.208;4.238;2022-10-26T01:52:36;6.65;;;3.10;;
14526;SDS011;7350;51.208;4.238;2022-10-26T01:55:04;7.78;;;3.17;;
14526;SDS011;7350;51.208;4.238;2022-10-26T01:57:52;7.70;;;3.20;;
14526;SDS011;7350;51.208;4.238;2022-10-26T02:00:24;6.45;;;2.65;;
14526;SDS011;7350;51.208;4.238;2022-10-26T02:02:58;8.98;;;2.95;;
14526;SDS011;7350;51.208;4.238;2022-10-26T02:05:30;5.55;;;2.90;;
14526;SDS011;7350;51.208;4.238;2022-10-26T02:08:18;7.95;;;2.85;;
14526;SDS011;7350;51.208;4.238;2022-10-26T02:10:55;7.72;;;2.55;;
14526;SDS011;7350;51.208;4.238;2022-10-26T02:13:32;8.35;;;3.30;;
14526;SDS011;7350;51.208;4.238;2022-10-26T02:16:09;5.63;;;2.88;;
14526;SDS011;7350;51.208;4.238;2022-10-26T02:18:46;5.45;;;2.83;;
14526;SDS011;7350;51.208;4.238;2022-10-26T02:21:18;9.30;;;3.08;;
14526;SDS011;7350;51.208;4.238;2022-10-26T02:23:50;5.32;;;2.70;;
14526;SDS011;7350;51.208;4.238;2022-10-26T02:26:21;3.78;;;2.80;;
14526;SDS011;7350;51.208;4.238;2022-10-26T02:28:52;6.15;;;2.80;;
14526;SDS011;7350;51.208;4.238;2022-10-26T02:31:23;7.45;;;3.20;;
14526;SDS011;7350;51.208;4.238;2022-10-26T02:33:53;6.63;;;3.40;;
14526;SDS011;7350;51.208;4.238;2022-10-26T02:36:25;8.38;;;3.20;;
14526;SDS011;7350;51.208;4.238;2022-10-26T02:38:56;4.13;;;2.88;;
14526;SDS011;7350;51.208;4.238;2022-10-26T02:41:24;7.88;;;3.20;;
14526;SDS011;7350;51.208;4.238;2022-10-26T02:43:53;7.32;;;2.70;;
14526;SDS011;7350;51.208;4.238;2022-10-26T02:46:25;6.15;;;3.03;;
14526;SDS011;7350;51.208;4.238;2022-10-26T02:48:54;5.72;;;2.95;;
14526;SDS011;7350;51.208;4.238;2022-10-26T02:51:24;5.80;;;2.95;;
14526;SDS011;7350;51.208;4.238;2022-10-26T02:53:57;4.88;;;2.88;;
14526;SDS011;7350;51.208;4.238;2022-10-26T02:56:28;6.20;;;2.97;;
14526;SDS011;7350;51.208;4.238;2022-10-26T02:59:03;6.45;;;3.22;;
14526;SDS011;7350;51.208;4.238;2022-10-26T03:01:32;6.35;;;3.38;;
14526;SDS011;7350;51.208;4.238;2022-10-26T03:04:00;8.18;;;3.00;;
14526;SDS011;7350;51.208;4.238;2022-10-26T03:06:28;6.00;;;2.80;;
14526;SDS011;7350;51.208;4.238;2022-10-26T03:08:54;6.10;;;2.70;;
14526;SDS011;7350;51.208;4.238;2022-10-26T03:11:21;6.35;;;2.30;;
14526;SDS011;7350;51.208;4.238;2022-10-26T03:13:48;5.18;;;2.78;;
14526;SDS011;7350;51.208;4.238;2022-10-26T03:16:15;7.05;;;3.05;;
14526;SDS011;7350;51.208;4.238;2022-10-26T03:18:42;5.60;;;2.90;;
14526;SDS011;7350;51.208;4.238;2022-10-26T03:21:10;6.70;;;2.70;;
14526;SDS011;7350;51.208;4.238;2022-10-26T03:23:37;5.05;;;2.88;;
14526;SDS011;7350;51.208;4.238;2022-10-26T03:26:04;6.80;;;2.83;;
14526;SDS011;7350;51.208;4.238;2022-10-26T03:28:31;6.50;;;3.00;;
14526;SDS011;7350;51.208;4.238;2022-10-26T03:30:58;7.07;;;3.08;;
14526;SDS011;7350;51.208;4.238;2022-10-26T03:33:25;5.90;;;2.70;;
14526;SDS011;7350;51.208;4.238;2022-10-26T03:35:54;6.82;;;3.00;;
14526;SDS011;7350;51.208;4.238;2022-10-26T03:38:23;3.67;;;2.28;;
14526;SDS011;7350;51.208;4.238;2022-10-26T03:40:50;3.72;;;2.30;;
14526;SDS011;7350;51.208;4.238;2022-10-26T03:43:17;8.07;;;2.97;;
14526;SDS011;7350;51.208;4.238;2022-10-26T03:45:44;7.03;;;3.00;;
14526;SDS011;7350;51.208;4.238;2022-10-26T03:48:11;7.20;;;2.47;;
14526;SDS011;7350;51.208;4.238;2022-10-26T03:50:38;7.78;;;2.90;;
14526;SDS011;7350;51.208;4.238;2022-10-26T03:53:05;7.05;;;2.75;;
14526;SDS011;7350;51.208;4.238;2022-10-26T03:55:33;4.60;;;2.15;;
14526;SDS011;7350;51.208;4.238;2022-10-26T03:58:00;7.53;;;2.40;;
14526;SDS011;7350;51.208;4.238;2022-10-26T04:00:27;5.93;;;2.58;;
14526;SDS011;7350;51.208;4.238;2022-10-26T04:02:54;7.63;;;2.47;;
14526;SDS011;7350;51.208;4.238;2022-10-26T04:05:22;5.40;;;2.83;;
14526;SDS011;7350;51.208;4.238;2022-10-26T04:07:51;8.00;;;2.65;;
14526;SDS011;7350;51.208;4.238;2022-10-26T04:10:18;6.53;;;2.60;;
14526;SDS011;7350;51.208;4.238;2022-10-26T04:12:47;4.10;;;2.42;;
14526;SDS011;7350;51.208;4.238;2022-10-26T04:15:14;9.02;;;2.80;;
14526;SDS011;7350;51.208;4.238;2022-10-26T04:17:41;5.10;;;2.40;;
14526;SDS011;7350;51.208;4.238;2022-10-26T04:20:08;6.93;;;2.75;;
14526;SDS011;7350;51.208;4.238;2022-10-26T04:22:36;9.63;;;2.72;;
14526;SDS011;7350;51.208;4.238;2022-10-26T04:25:03;6.07;;;2.47;;
14526;SDS011;7350;51.208;4.238;2022-10-26T04:27:31;4.38;;;2.53;;
14526;SDS011;7350;51.208;4.238;2022-10-26T04:29:59;4.57;;;2.22;;
14526;SDS011;7350;51.208;4.238;2022-10-26T04:32:26;5.25;;;2.42;;
14526;SDS011;7350;51.208;4.238;2022-10-26T04:34:53;7.90;;;2.40;;
14526;SDS011;7350;51.208;4.238;2022-10-26T04:37:20;6.35;;;2.40;;
14526;SDS011;7350;51.208;4.238;2022-10-26T04:39:47;5.70;;;2.40;;
14526;SDS011;7350;51.208;4.238;2022-10-26T04:42:14;7.07;;;2.47;;
14526;SDS011;7350;51.208;4.238;2022-10-26T04:44:41;7.55;;;2.55;;
14526;SDS011;7350;51.208;4.238;2022-10-26T04:47:09;8.25;;;2.28;;
14526;SDS011;7350;51.208;4.238;2022-10-26T04:49:36;6.28;;;2.42;;
14526;SDS011;7350;51.208;4.238;2022-10-26T04:52:04;7.75;;;2.50;;
14526;SDS011;7350;51.208;4.238;2022-10-26T04:54:31;12.27;;;3.00;;
14526;SDS011;7350;51.208;4.238;2022-10-26T04:56:58;7.10;;;2.40;;
14526;SDS011;7350;51.208;4.238;2022-10-26T04:59:24;5.07;;;2.17;;
14526;SDS011;7350;51.208;4.238;2022-10-26T05:01:51;7.97;;;3.13;;
14526;SDS011;7350;51.208;4.238;2022-10-26T05:04:20;5.78;;;2.60;;
14526;SDS011;7350;51.208;4.238;2022-10-26T05:06:46;7.53;;;2.78;;
14526;SDS011;7350;51.208;4.238;2022-10-26T05:09:13;7.95;;;2.40;;
14526;SDS011;7350;51.208;4.238;2022-10-26T05:11:40;8.23;;;3.58;;
14526;SDS011;7350;51.208;4.238;2022-10-26T05:14:08;7.55;;;2.60;;
14526;SDS011;7350;51.208;4.238;2022-10-26T05:16:37;9.05;;;2.83;;
14526;SDS011;7350;51.208;4.238;2022-10-26T05:19:04;7.90;;;2.80;;
14526;SDS011;7350;51.208;4.238;2022-10-26T05:21:32;9.90;;;2.80;;
14526;SDS011;7350;51.208;4.238;2022-10-26T05:23:59;4.82;;;2.30;;
14526;SDS011;7350;51.208;4.238;2022-10-26T05:26:26;5.57;;;2.35;;
14526;SDS011;7350;51.208;4.238;2022-10-26T05:28:52;8.77;;;2.90;;
14526;SDS011;7350;51.208;4.238;2022-10-26T05:31:19;6.20;;;2.28;;
14526;SDS011;7350;51.208;4.238;2022-10-26T05:33:47;4.47;;;2.58;;
14526;SDS011;7350;51.208;4.238;2022-10-26T05:36:15;9.45;;;2.63;;
14526;SDS011;7350;51.208;4.238;2022-10-26T05:38:43;7.05;;;2.30;;
14526;SDS011;7350;51.208;4.238;2022-10-26T05:41:10;6.65;;;2.60;;
14526;SDS011;7350;51.208;4.238;2022-10-26T05:43:38;9.90;;;2.67;;
14526;SDS011;7350;51.208;4.238;2022-10-26T05:46:04;7.55;;;2.20;;
14526;SDS011;7350;51.208;4.238;2022-10-26T05:48:31;4.00;;;2.30;;
14526;SDS011;7350;51.208;4.238;2022-10-26T05:50:58;8.05;;;2.78;;
14526;SDS011;7350;51.208;4.238;2022-10-26T05:53:25;9.23;;;2.40;;
14526;SDS011;7350;51.208;4.238;2022-10-26T05:55:54;7.65;;;3.00;;
14526;SDS011;7350;51.208;4.238;2022-10-26T05:58:22;6.72;;;2.67;;
14526;SDS011;7350;51.208;4.238;2022-10-26T06:00:54;4.80;;;2.53;;
14526;SDS011;7350;51.208;4.238;2022-10-26T06:03:34;6.35;;;2.70;;
14526;SDS011;7350;51.208;4.238;2022-10-26T06:06:11;7.00;;;3.05;;
14526;SDS011;7350;51.208;4.238;2022-10-26T06:08:39;7.15;;;2.55;;
14526;SDS011;7350;51.208;4.238;2022-10-26T06:11:09;6.07;;;3.15;;
14526;SDS011;7350;51.208;4.238;2022-10-26T06:13:36;6.28;;;2.50;;
14526;SDS011;7350;51.208;4.238;2022-10-26T06:16:11;6.60;;;3.03;;
14526;SDS011;7350;51.208;4.238;2022-10-26T06:18:55;6.20;;;2.58;;
14526;SDS011;7350;51.208;4.238;2022-10-26T06:21:34;6.55;;;2.70;;
14526;SDS011;7350;51.208;4.238;2022-10-26T06:24:09;9.98;;;3.22;;
14526;SDS011;7350;51.208;4.238;2022-10-26T06:26:45;7.13;;;3.28;;
14526;SDS011;7350;51.208;4.238;2022-10-26T06:29:21;5.85;;;2.53;;
14526;SDS011;7350;51.208;4.238;2022-10-26T06:31:57;5.63;;;2.88;;
14526;SDS011;7350;51.208;4.238;2022-10-26T06:34:24;7.97;;;2.75;;
14526;SDS011;7350;51.208;4.238;2022-10-26T06:36:55;7.35;;;2.95;;
14526;SDS011;7350;51.208;4.238;2022-10-26T06:39:24;5.10;;;2.80;;
14526;SDS011;7350;51.208;4.238;2022-10-26T06:41:56;9.23;;;3.47;;
14526;SDS011;7350;51.208;4.238;2022-10-26T06:44:24;5.82;;;2.65;;
14526;SDS011;7350;51.208;4.238;2022-10-26T06:46:53;4.30;;;2.47;;
14526;SDS011;7350;51.208;4.238;2022-10-26T06:49:26;7.35;;;3.20;;
14526;SDS011;7350;51.208;4.238;2022-10-26T06:51:57;6.88;;;3.00;;
14526;SDS011;7350;51.208;4.238;2022-10-26T06:54:28;6.30;;;2.80;;
14526;SDS011;7350;51.208;4.238;2022-10-26T06:57:14;5.88;;;3.30;;
14526;SDS011;7350;51.208;4.238;2022-10-26T06:59:42;8.63;;;3.08;;
14526;SDS011;7350;51.208;4.238;2022-10-26T07:02:12;8.55;;;2.53;;
14526;SDS011;7350;51.208;4.238;2022-10-26T07:04:39;8.57;;;3.05;;
14526;SDS011;7350;51.208;4.238;2022-10-26T07:07:07;8.90;;;3.17;;
14526;SDS011;7350;51.208;4.238;2022-10-26T07:09:35;8.85;;;4.88;;
14526;SDS011;7350;51.208;4.238;2022-10-26T07:12:02;7.57;;;2.47;;
14526;SDS011;7350;51.208;4.238;2022-10-26T07:14:30;5.95;;;2.63;;
14526;SDS011;7350;51.208;4.238;2022-10-26T07:16:57;5.50;;;2.53;;
14526;SDS011;7350;51.208;4.238;2022-10-26T07:19:24;5.90;;;2.78;;
14526;SDS011;7350;51.208;4.238;2022-10-26T07:21:52;5.90;;;2.42;;
14526;SDS011;7350;51.208;4.238;2022-10-26T07:24:20;7.43;;;2.67;;
14526;SDS011;7350;51.208;4.238;2022-10-26T07:26:47;5.88;;;2.33;;
14526;SDS011;7350;51.208;4.238;2022-10-26T07:29:14;6.05;;;2.40;;
14526;SDS011;7350;51.208;4.238;2022-10-26T07:31:43;4.85;;;2.30;;
14526;SDS011;7350;51.208;4.238;2022-10-26T07:34:10;6.10;;;2.90;;
14526;SDS011;7350;51.208;4.238;2022-10-26T07:36:37;3.97;;;1.92;;
14526;SDS011;7350;51.208;4.238;2022-10-26T07:39:04;3.63;;;1.98;;
14526;SDS011;7350;51.208;4.238;2022-10-26T07:41:31;4.68;;;2.28;;
14526;SDS011;7350;51.208;4.238;2022-10-26T07:43:58;7.28;;;2.13;;
14526;SDS011;7350;51.208;4.238;2022-10-26T07:46:25;7.65;;;2.67;;
14526;SDS011;7350;51.208;4.238;2022-10-26T07:48:53;4.60;;;2.08;;
14526;SDS011;7350;51.208;4.238;2022-10-26T07:51:20;3.97;;;2.22;;
14526;SDS011;7350;51.208;4.238;2022-10-26T07:53:47;5.80;;;2.30;;
14526;SDS011;7350;51.208;4.238;2022-10-26T07:56:14;5.18;;;2.20;;
14526;SDS011;7350;51.208;4.238;2022-10-26T07:58:41;5.68;;;2.13;;
14526;SDS011;7350;51.208;4.238;2022-10-26T08:01:09;5.40;;;2.05;;
14526;SDS011;7350;51.208;4.238;2022-10-26T08:03:37;4.07;;;1.85;;
14526;SDS011;7350;51.208;4.238;2022-10-26T08:06:05;5.30;;;2.20;;
14526;SDS011;7350;51.208;4.238;2022-10-26T08:08:33;4.60;;;2.22;;
14526;SDS011;7350;51.208;4.238;2022-10-26T08:11:00;6.43;;;2.28;;
14526;SDS011;7350;51.208;4.238;2022-10-26T08:13:28;5.15;;;2.42;;
14526;SDS011;7350;51.208;4.238;2022-10-26T08:15:56;6.55;;;2.55;;
14526;SDS011;7350;51.208;4.238;2022-10-26T08:18:23;6.13;;;2.53;;
14526;SDS011;7350;51.208;4.238;2022-10-26T08:20:50;6.20;;;2.28;;
14526;SDS011;7350;51.208;4.238;2022-10-26T08:23:18;5.57;;;2.33;;
14526;SDS011;7350;51.208;4.238;2022-10-26T08:25:46;6.40;;;2.50;;
14526;SDS011;7350;51.208;4.238;2022-10-26T08:28:12;5.78;;;2.20;;
14526;SDS011;7350;51.208;4.238;2022-10-26T08:30:39;5.72;;;2.53;;
14526;SDS011;7350;51.208;4.238;2022-10-26T08:33:07;7.90;;;2.30;;
14526;SDS011;7350;51.208;4.238;2022-10-26T08:35:36;5.32;;;2.50;;
14526;SDS011;7350;51.208;4.238;2022-10-26T08:38:03;5.97;;;2.70;;
14526;SDS011;7350;51.208;4.238;2022-10-26T08:40:31;3.20;;;2.42;;
14526;SDS011;7350;51.208;4.238;2022-10-26T08:43:02;5.13;;;2.30;;
14526;SDS011;7350;51.208;4.238;2022-10-26T08:45:37;8.55;;;2.63;;
14526;SDS011;7350;51.208;4.238;2022-10-26T08:48:08;4.63;;;2.30;;
14526;SDS011;7350;51.208;4.238;2022-10-26T08:50:41;8.40;;;2.25;;
14526;SDS011;7350;51.208;4.238;2022-10-26T08:53:15;5.22;;;2.60;;
14526;SDS011;7350;51.208;4.238;2022-10-26T08:55:50;6.22;;;2.28;;
14526;SDS011;7350;51.208;4.238;2022-10-26T08:58:21;4.85;;;1.90;;
14526;SDS011;7350;51.208;4.238;2022-10-26T09:00:52;5.80;;;2.55;;
14526;SDS011;7350;51.208;4.238;2022-10-26T09:03:19;6.78;;;3.13;;
14526;SDS011;7350;51.208;4.238;2022-10-26T09:05:57;7.25;;;2.40;;
14526;SDS011;7350;51.208;4.238;2022-10-26T09:08:41;4.70;;;2.20;;
14526;SDS011;7350;51.208;4.238;2022-10-26T09:11:19;5.30;;;2.20;;
14526;SDS011;7350;51.208;4.238;2022-10-26T09:13:57;6.97;;;2.70;;
14526;SDS011;7350;51.208;4.238;2022-10-26T09:16:29;4.82;;;2.30;;
14526;SDS011;7350;51.208;4.238;2022-10-26T09:19:14;5.13;;;2.42;;
14526;SDS011;7350;51.208;4.238;2022-10-26T09:21:52;5.25;;;2.40;;
14526;SDS011;7350;51.208;4.238;2022-10-26T09:24:27;3.53;;;2.13;;
14526;SDS011;7350;51.208;4.238;2022-10-26T09:26:59;3.65;;;1.83;;
14526;SDS011;7350;51.208;4.238;2022-10-26T09:29:33;5.72;;;1.95;;
14526;SDS011;7350;51.208;4.238;2022-10-26T09:32:08;6.88;;;2.40;;
14526;SDS011;7350;51.208;4.238;2022-10-26T09:34:40;11.10;;;2.65;;
14526;SDS011;7350;51.208;4.238;2022-10-26T09:37:12;4.78;;;1.90;;
14526;SDS011;7350;51.208;4.238;2022-10-26T09:39:44;6.07;;;2.30;;
14526;SDS011;7350;51.208;4.238;2022-10-26T09:42:22;7.05;;;1.95;;
14526;SDS011;7350;51.208;4.238;2022-10-26T09:44:53;6.05;;;1.90;;
14526;SDS011;7350;51.208;4.238;2022-10-26T09:47:27;3.85;;;1.90;;
14526;SDS011;7350;51.208;4.238;2022-10-26T09:50:00;6.70;;;2.20;;
14526;SDS011;7350;51.208;4.238;2022-10-26T09:52:32;5.47;;;2.10;;
14526;SDS011;7350;51.208;4.238;2022-10-26T09:54:58;5.45;;;1.80;;
14526;SDS011;7350;51.208;4.238;2022-10-26T09:57:27;4.22;;;2.03;;
14526;SDS011;7350;51.208;4.238;2022-10-26T09:59:54;4.72;;;2.00;;
14526;SDS011;7350;51.208;4.238;2022-10-26T10:02:32;6.68;;;2.47;;
14526;SDS011;7350;51.208;4.238;2022-10-26T10:05:00;4.53;;;2.15;;
14526;SDS011;7350;51.208;4.238;2022-10-26T10:07:27;3.90;;;2.22;;
14526;SDS011;7350;51.208;4.238;2022-10-26T10:10:07;8.00;;;1.80;;
14526;SDS011;7350;51.208;4.238;2022-10-26T10:12:43;6.82;;;1.77;;
14526;SDS011;7350;51.208;4.238;2022-10-26T10:15:18;6.35;;;2.00;;
14526;SDS011;7350;51.208;4.238;2022-10-26T10:17:47;5.63;;;1.83;;
14526;SDS011;7350;51.208;4.238;2022-10-26T10:20:18;4.63;;;1.98;;
14526;SDS011;7350;51.208;4.238;2022-10-26T10:22:54;6.18;;;1.92;;
14526;SDS011;7350;51.208;4.238;2022-10-26T10:25:23;9.07;;;2.00;;
14526;SDS011;7350;51.208;4.238;2022-10-26T10:27:59;8.43;;;1.98;;
14526;SDS011;7350;51.208;4.238;2022-10-26T10:30:27;5.10;;;1.65;;
14526;SDS011;7350;51.208;4.238;2022-10-26T10:33:05;4.60;;;2.10;;
14526;SDS011;7350;51.208;4.238;2022-10-26T10:35:35;5.38;;;2.17;;
14526;SDS011;7350;51.208;4.238;2022-10-26T10:38:05;4.25;;;1.90;;
14526;SDS011;7350;51.208;4.238;2022-10-26T10:40:32;6.57;;;1.48;;
14526;SDS011;7350;51.208;4.238;2022-10-26T10:43:05;6.93;;;1.55;;
14526;SDS011;7350;51.208;4.238;2022-10-26T10:45:37;3.13;;;1.50;;
14526;SDS011;7350;51.208;4.238;2022-10-26T10:48:11;3.40;;;1.58;;
14526;SDS011;7350;51.208;4.238;2022-10-26T10:50:49;4.13;;;1.52;;
14526;SDS011;7350;51.208;4.238;2022-10-26T10:53:18;3.67;;;1.50;;
14526;SDS011;7350;51.208;4.238;2022-10-26T10:55:54;2.35;;;1.35;;
14526;SDS011;7350;51.208;4.238;2022-10-26T10:58:30;5.43;;;1.80;;
14526;SDS011;7350;51.208;4.238;2022-10-26T11:01:07;6.18;;;1.80;;
14526;SDS011;7350;51.208;4.238;2022-10-26T11:03:42;3.47;;;1.27;;
14526;SDS011;7350;51.208;4.238;2022-10-26T11:06:19;4.40;;;1.85;;
14526;SDS011;7350;51.208;4.238;2022-10-26T11:08:49;7.50;;;1.38;;
14526;SDS011;7350;51.208;4.238;2022-10-26T11:11:21;5.25;;;1.85;;
14526;SDS011;7350;51.208;4.238;2022-10-26T11:13:55;6.65;;;2.15;;
14526;SDS011;7350;51.208;4.238;2022-10-26T11:16:29;3.17;;;1.40;;
14526;SDS011;7350;51.208;4.238;2022-10-26T11:18:59;3.25;;;1.67;;
14526;SDS011;7350;51.208;4.238;2022-10-26T11:21:31;8.02;;;1.90;;
14526;SDS011;7350;51.208;4.238;2022-10-26T11:24:04;4.18;;;1.65;;
14526;SDS011;7350;51.208;4.238;2022-10-26T11:26:38;6.63;;;1.85;;
14526;SDS011;7350;51.208;4.238;2022-10-26T11:29:15;5.18;;;1.55;;
14526;SDS011;7350;51.208;4.238;2022-10-26T11:31:50;5.05;;;2.00;;
14526;SDS011;7350;51.208;4.238;2022-10-26T11:34:20;5.28;;;1.50;;
14526;SDS011;7350;51.208;4.238;2022-10-26T11:36:55;4.15;;;1.80;;
14526;SDS011;7350;51.208;4.238;2022-10-26T11:39:28;4.63;;;1.40;;
14526;SDS011;7350;51.208;4.238;2022-10-26T11:42:02;5.47;;;1.50;;
14526;SDS011;7350;51.208;4.238;2022-10-26T11:44:37;3.08;;;1.40;;
14526;SDS011;7350;51.208;4.238;2022-10-26T11:47:09;6.50;;;1.60;;
14526;SDS011;7350;51.208;4.238;2022-10-26T11:49:41;4.95;;;1.50;;
14526;SDS011;7350;51.208;4.238;2022-10-26T11:52:12;5.03;;;1.63;;
14526;SDS011;7350;51.208;4.238;2022-10-26T11:54:44;4.78;;;1.70;;
14526;SDS011;7350;51.208;4.238;2022-10-26T11:57:16;2.85;;;1.15;;
14526;SDS011;7350;51.208;4.238;2022-10-26T11:59:46;7.68;;;1.80;;
14526;SDS011;7350;51.208;4.238;2022-10-26T12:02:18;2.92;;;1.40;;
14526;SDS011;7350;51.208;4.238;2022-10-26T12:04:47;6.75;;;1.60;;
14526;SDS011;7350;51.208;4.238;2022-10-26T12:07:19;4.15;;;1.48;;
14526;SDS011;7350;51.208;4.238;2022-10-26T12:09:50;2.35;;;1.30;;
14526;SDS011;7350;51.208;4.238;2022-10-26T12:12:20;4.10;;;1.20;;
14526;SDS011;7350;51.208;4.238;2022-10-26T12:14:53;3.25;;;1.50;;
14526;SDS011;7350;51.208;4.238;2022-10-26T12:17:25;4.38;;;1.50;;
14526;SDS011;7350;51.208;4.238;2022-10-26T12:19:58;4.75;;;1.80;;
14526;SDS011;7350;51.208;4.238;2022-10-26T12:22:31;1.90;;;1.17;;
14526;SDS011;7350;51.208;4.238;2022-10-26T12:25:04;5.50;;;1.60;;
14526;SDS011;7350;51.208;4.238;2022-10-26T12:27:47;3.15;;;1.60;;
14526;SDS011;7350;51.208;4.238;2022-10-26T12:33:25;4.07;;;1.35;;
14526;SDS011;7350;51.208;4.238;2022-10-26T12:35:54;3.58;;;1.58;;
14526;SDS011;7350;51.208;4.238;2022-10-26T12:41:24;4.20;;;1.20;;
14526;SDS011;7350;51.208;4.238;2022-10-26T12:43:55;5.22;;;1.30;;
14526;SDS011;7350;51.208;4.238;2022-10-26T12:52:21;4.75;;;1.50;;
14526;SDS011;7350;51.208;4.238;2022-10-26T12:57:55;4.80;;;1.40;;
14526;SDS011;7350;51.208;4.238;2022-10-26T13:00:31;3.75;;;1.40;;
14526;SDS011;7350;51.208;4.238;2022-10-26T13:03:07;5.93;;;1.20;;
14526;SDS011;7350;51.208;4.238;2022-10-26T13:05:53;5.55;;;1.45;;
14526;SDS011;7350;51.208;4.238;2022-10-26T13:08:36;3.63;;;1.35;;
14526;SDS011;7350;51.208;4.238;2022-10-26T13:11:05;8.13;;;1.90;;
14526;SDS011;7350;51.208;4.238;2022-10-26T13:13:44;6.40;;;1.50;;
14526;SDS011;7350;51.208;4.238;2022-10-26T13:16:19;4.78;;;1.20;;
14526;SDS011;7350;51.208;4.238;2022-10-26T13:18:47;5.07;;;1.40;;
14526;SDS011;7350;51.208;4.238;2022-10-26T13:21:15;2.50;;;1.30;;
14526;SDS011;7350;51.208;4.238;2022-10-26T13:23:43;3.65;;;1.30;;
14526;SDS011;7350;51.208;4.238;2022-10-26T13:26:13;3.90;;;1.52;;
14526;SDS011;7350;51.208;4.238;2022-10-26T13:28:42;5.45;;;1.20;;
14526;SDS011;7350;51.208;4.238;2022-10-26T13:34:23;4.93;;;1.30;;
14526;SDS011;7350;51.208;4.238;2022-10-26T13:36:55;5.97;;;1.40;;
14526;SDS011;7350;51.208;4.238;2022-10-26T13:39:29;4.60;;;1.58;;
14526;SDS011;7350;51.208;4.238;2022-10-26T13:41:58;3.45;;;1.20;;
14526;SDS011;7350;51.208;4.238;2022-10-26T13:44:26;5.72;;;1.30;;
14526;SDS011;7350;51.208;4.238;2022-10-26T13:46:58;7.57;;;1.50;;
14526;SDS011;7350;51.208;4.238;2022-10-26T13:49:32;4.15;;;1.35;;
14526;SDS011;7350;51.208;4.238;2022-10-26T13:52:03;2.38;;;1.20;;
14526;SDS011;7350;51.208;4.238;2022-10-26T13:54:41;2.70;;;1.10;;
14526;SDS011;7350;51.208;4.238;2022-10-26T13:57:14;4.82;;;1.45;;
14526;SDS011;7350;51.208;4.238;2022-10-26T13:59:45;4.97;;;1.40;;
14526;SDS011;7350;51.208;4.238;2022-10-26T14:02:14;4.35;;;1.63;;
14526;SDS011;7350;51.208;4.238;2022-10-26T14:04:50;3.40;;;1.30;;
14526;SDS011;7350;51.208;4.238;2022-10-26T14:07:18;3.67;;;1.30;;
14526;SDS011;7350;51.208;4.238;2022-10-26T14:09:48;4.68;;;1.70;;
14526;SDS011;7350;51.208;4.238;2022-10-26T14:12:19;2.97;;;1.25;;
14526;SDS011;7350;51.208;4.238;2022-10-26T14:14:47;6.80;;;1.40;;
14526;SDS011;7350;51.208;4.238;2022-10-26T14:17:17;3.25;;;1.23;;
14526;SDS011;7350;51.208;4.238;2022-10-26T14:19:45;4.60;;;1.15;;
14526;SDS011;7350;51.208;4.238;2022-10-26T14:22:19;3.75;;;1.30;;
14526;SDS011;7350;51.208;4.238;2022-10-26T14:24:51;6.10;;;1.42;;
14526;SDS011;7350;51.208;4.238;2022-10-26T14:27:20;4.05;;;1.77;;
14526;SDS011;7350;51.208;4.238;2022-10-26T14:29:48;5.88;;;1.30;;
14526;SDS011;7350;51.208;4.238;2022-10-26T14:32:18;6.50;;;1.80;;
14526;SDS011;7350;51.208;4.238;2022-10-26T14:34:46;7.72;;;1.42;;
14526;SDS011;7350;51.208;4.238;2022-10-26T14:37:14;6.95;;;1.80;;
14526;SDS011;7350;51.208;4.238;2022-10-26T14:39:51;4.53;;;1.52;;
14526;SDS011;7350;51.208;4.238;2022-10-26T14:42:20;5.82;;;1.65;;
14526;SDS011;7350;51.208;4.238;2022-10-26T14:44:52;6.07;;;1.60;;
14526;SDS011;7350;51.208;4.238;2022-10-26T14:47:22;5.97;;;1.58;;
14526;SDS011;7350;51.208;4.238;2022-10-26T14:49:50;6.05;;;1.50;;
14526;SDS011;7350;51.208;4.238;2022-10-26T14:52:20;4.40;;;1.20;;
14526;SDS011;7350;51.208;4.238;2022-10-26T14:54:57;5.75;;;1.50;;
14526;SDS011;7350;51.208;4.238;2022-10-26T14:57:29;5.13;;;1.63;;
14526;SDS011;7350;51.208;4.238;2022-10-26T14:59:59;7.28;;;1.48;;
14526;SDS011;7350;51.208;4.238;2022-10-26T15:02:26;6.22;;;1.55;;
14526;SDS011;7350;51.208;4.238;2022-10-26T15:04:58;7.10;;;1.80;;
14526;SDS011;7350;51.208;4.238;2022-10-26T15:07:34;5.90;;;1.75;;
14526;SDS011;7350;51.208;4.238;2022-10-26T15:10:04;6.88;;;1.95;;
14526;SDS011;7350;51.208;4.238;2022-10-26T15:12:32;5.68;;;1.50;;
14526;SDS011;7350;51.208;4.238;2022-10-26T15:15:07;4.70;;;1.50;;
14526;SDS011;7350;51.208;4.238;2022-10-26T15:17:46;4.70;;;1.33;;
14526;SDS011;7350;51.208;4.238;2022-10-26T15:20:16;5.50;;;1.30;;
14526;SDS011;7350;51.208;4.238;2022-10-26T15:22:49;4.65;;;1.75;;
14526;SDS011;7350;51.208;4.238;2022-10-26T15:25:19;3.47;;;1.20;;
14526;SDS011;7350;51.208;4.238;2022-10-26T15:27:48;6.45;;;1.55;;
14526;SDS011;7350;51.208;4.238;2022-10-26T15:30:17;6.00;;;1.63;;
14526;SDS011;7350;51.208;4.238;2022-10-26T15:32:49;4.55;;;1.40;;
14526;SDS011;7350;51.208;4.238;2022-10-26T15:35:26;8.07;;;1.75;;
14526;SDS011;7350;51.208;4.238;2022-10-26T15:37:56;5.95;;;1.60;;
14526;SDS011;7350;51.208;4.238;2022-10-26T15:40:25;5.55;;;1.77;;
14526;SDS011;7350;51.208;4.238;2022-10-26T15:42:53;4.40;;;1.25;;